weather.gov     
National Weather Service

Terminal Aerodrome Forecast
NWS Homepage
This page is being discontinued on March 12, 2014.
The same data is available at this site. Please update your bookmarks.
Thank you, and we apologize for the inconvenience.
Please send an email to SR-SRH.Webmaster@noaa.gov with any concerns.


Current Version
Previous Version:    01  02  03  04  05  06  07  08  09  10  11  12  13  14  15  16  17  18  19  20  21  22  23  24  25  
[Printable]
549
FTUS46 KSEW 240100 AAA
TAFOLM
TAF AMD
KOLM 240120Z 2401/2424 15004KT 5SM -RA BR SCT007 BKN012 OVC019
      TEMPO 2401/2405 2SM -RA BR BKN007 OVC012
     FM241100 20010KT 4SM -RA OVC007
     FM241700 21011G18KT P6SM -SHRA OVC025
     FM242200 23012KT P6SM VCSH SCT025 OVC050=


U.S. Dept. of Commerce
NOAA National Weather Service
1325 East West Highway
Silver Spring, MD 20910
E-mail: w-nws.webmaster@noaa.gov
Page last modified: May 16, 2007
NATIONAL WEATHER SERVICE: for Safety, for Work, for Fun - FOR LIFE